createdAt,value
2022-08-07T00:02:36.453Z,12.95
2022-08-07T00:04:55.003Z,13.88
2022-08-07T00:07:27.274Z,12.33
2022-08-07T00:10:25.525Z,12.65
2022-08-07T00:12:32.563Z,14.35
2022-08-07T00:15:04.053Z,12.60
2022-08-07T00:17:35.893Z,12.50
2022-08-07T00:20:09.259Z,12.90
2022-08-07T00:22:42.364Z,13.13
2022-08-07T00:25:16.617Z,11.93
2022-08-07T00:27:53.346Z,14.15
2022-08-07T00:30:27.234Z,12.53
2022-08-07T00:32:55.156Z,12.50
2022-08-07T00:35:27.011Z,10.58
2022-08-07T00:38:00.816Z,12.28
2022-08-07T00:40:39.896Z,11.80
2022-08-07T00:43:09.838Z,10.85
2022-08-07T00:45:40.354Z,10.93
2022-08-07T00:48:12.951Z,10.72
2022-08-07T00:50:51.108Z,10.78
2022-08-07T00:53:18.476Z,9.98
2022-08-07T00:56:03.371Z,10.43
2022-08-07T00:58:25.290Z,10.03
2022-08-07T01:00:56.810Z,10.82
2022-08-07T01:03:55.449Z,10.43
2022-08-07T01:06:03.021Z,10.18
2022-08-07T01:08:35.240Z,9.90
2022-08-07T01:12:05.030Z,9.98
2022-08-07T01:13:41.533Z,9.33
2022-08-07T01:16:15.732Z,9.23
2022-08-07T01:18:48.701Z,9.25
2022-08-07T01:21:26.065Z,8.35
2022-08-07T01:24:02.208Z,9.48
2022-08-07T01:26:34.588Z,10.10
2022-08-07T01:29:07.013Z,8.73
2022-08-07T01:31:42.838Z,9.78
2022-08-07T01:34:15.608Z,9.08
2022-08-07T01:36:52.961Z,10.78
2022-08-07T01:39:20.731Z,10.85
2022-08-07T01:42:07.381Z,10.80
2022-08-07T01:44:25.366Z,10.28
2022-08-07T01:46:57.115Z,9.93
2022-08-07T01:49:32.029Z,9.53
2022-08-07T01:52:06.565Z,9.50
2022-08-07T01:54:41.295Z,9.73
2022-08-07T01:57:20.419Z,9.50
2022-08-07T01:59:53.199Z,9.35
2022-08-07T02:03:12.185Z,10.65
2022-08-07T02:05:05.541Z,10.08
2022-08-07T02:07:49.818Z,10.88
2022-08-07T02:10:16.237Z,10.38
2022-08-07T02:12:50.241Z,9.95
2022-08-07T02:15:27.866Z,10.40
2022-08-07T02:18:00.631Z,10.00
2022-08-07T02:20:34.293Z,10.75
2022-08-07T02:23:11.182Z,9.68
2022-08-07T02:26:31.438Z,9.10
2022-08-07T02:28:24.569Z,11.10
2022-08-07T02:30:53.305Z,12.15
2022-08-07T02:33:42.157Z,10.72
2022-08-07T02:36:29.122Z,10.03
2022-08-07T02:38:38.332Z,9.55
2022-08-07T02:41:10.893Z,10.30
2022-08-07T02:43:47.666Z,11.30
2022-08-07T02:46:20.800Z,10.65
2022-08-07T02:49:04.549Z,10.23
2022-08-07T02:51:42.667Z,10.53
2022-08-07T02:54:13.577Z,10.75
2022-08-07T02:56:46.863Z,10.75
2022-08-07T02:59:23.954Z,11.22
2022-08-07T03:01:55.654Z,11.57
2022-08-07T03:04:29.889Z,10.40
2022-08-07T03:07:07.153Z,10.75
2022-08-07T03:09:43.483Z,10.43
2022-08-07T03:12:22.070Z,10.35
2022-08-07T03:14:51.990Z,10.82
2022-08-07T03:17:20.096Z,10.65
2022-08-07T03:19:55.263Z,11.22
2022-08-07T03:22:29.705Z,9.55
2022-08-07T03:25:01.061Z,10.32
2022-08-07T03:27:58.719Z,10.08
2022-08-07T03:30:07.403Z,9.93
2022-08-07T03:32:57.049Z,10.13
2022-08-07T03:35:18.787Z,10.68
2022-08-07T03:37:55.138Z,9.33
2022-08-07T03:40:31.066Z,10.55
2022-08-07T03:43:02.186Z,9.50
2022-08-07T03:45:35.084Z,10.03
2022-08-07T03:48:10.129Z,10.20
2022-08-07T03:50:56.302Z,9.88
2022-08-07T03:53:17.503Z,9.93
2022-08-07T03:56:04.394Z,10.45
2022-08-07T03:59:08.153Z,11.83
2022-08-07T04:01:11.188Z,11.88
2022-08-07T04:03:53.205Z,10.90
2022-08-07T04:06:37.661Z,10.98
2022-08-07T04:08:50.351Z,10.63
2022-08-07T04:12:24.570Z,10.90
2022-08-07T04:14:09.473Z,12.55
2022-08-07T04:16:32.119Z,10.23
2022-08-07T04:19:14.937Z,11.40
2022-08-07T04:21:37.374Z,11.33
2022-08-07T04:24:30.360Z,12.68
2022-08-07T04:26:46.382Z,12.53
2022-08-07T04:29:18.801Z,11.05
2022-08-07T04:32:03.000Z,12.23
2022-08-07T04:34:32.887Z,11.25
2022-08-07T04:36:58.915Z,11.38
2022-08-07T04:39:35.693Z,11.28
2022-08-07T04:42:05.433Z,11.43
2022-08-07T04:44:37.850Z,10.60
2022-08-07T04:47:56.766Z,12.50
2022-08-07T04:50:03.495Z,11.25
2022-08-07T04:52:27.530Z,12.18
2022-08-07T04:55:15.027Z,11.45
2022-08-07T04:58:12.382Z,11.53
2022-08-07T05:00:18.831Z,11.40
2022-08-07T05:02:53.986Z,10.72
2022-08-07T05:05:54.236Z,11.45
2022-08-07T05:08:04.194Z,12.37
2022-08-07T05:10:39.138Z,11.35
2022-08-07T05:14:53.405Z,11.15
2022-08-07T05:15:51.336Z,11.45
2022-08-07T05:18:27.257Z,12.07
2022-08-07T05:21:03.827Z,11.22
2022-08-07T05:23:39.785Z,12.33
2022-08-07T05:26:23.653Z,11.93
2022-08-07T05:28:51.345Z,11.95
2022-08-07T05:31:34.979Z,11.25
2022-08-07T05:34:04.823Z,11.97
2022-08-07T05:36:35.874Z,12.03
2022-08-07T05:40:06.359Z,10.63
2022-08-07T05:42:02.556Z,11.25
2022-08-07T05:44:29.358Z,12.35
2022-08-07T05:46:53.016Z,10.82
2022-08-07T05:49:25.158Z,10.90
2022-08-07T05:51:59.569Z,11.35
2022-08-07T05:54:53.382Z,10.45
2022-08-07T05:57:04.923Z,13.03
2022-08-07T05:59:57.476Z,9.43
2022-08-07T06:02:20.110Z,11.08
2022-08-07T06:04:52.174Z,11.00
2022-08-07T06:08:14.109Z,11.15
2022-08-07T06:10:05.209Z,10.82
2022-08-07T06:12:35.086Z,11.25
2022-08-07T06:15:09.735Z,10.43
2022-08-07T06:17:53.713Z,10.38
2022-08-07T06:20:25.593Z,12.40
2022-08-07T06:23:25.132Z,11.45
2022-08-07T06:25:24.009Z,11.05
2022-08-07T06:28:03.926Z,11.00
2022-08-07T06:30:41.383Z,9.85
2022-08-07T06:33:09.802Z,9.70
2022-08-07T06:35:47.630Z,10.60
2022-08-07T06:38:20.016Z,10.68
2022-08-07T06:40:52.916Z,10.30
2022-08-07T06:43:27.510Z,11.45
2022-08-07T06:46:00.970Z,11.43
2022-08-07T06:48:32.861Z,10.90
2022-08-07T06:51:08.386Z,10.90
2022-08-07T06:55:29.445Z,10.43
2022-08-07T06:56:17.643Z,10.30
2022-08-07T07:00:12.710Z,10.03
2022-08-07T07:01:25.566Z,14.00
2022-08-07T07:04:08.245Z,10.45
2022-08-07T07:06:33.346Z,11.43
2022-08-07T07:09:23.876Z,10.78
2022-08-07T07:12:15.638Z,11.33
2022-08-07T07:14:44.329Z,9.83
2022-08-07T07:17:21.513Z,11.48
2022-08-07T07:20:03.154Z,11.08
2022-08-07T07:24:09.091Z,11.73
2022-08-07T07:26:31.206Z,10.85
2022-08-07T07:27:58.524Z,10.35
2022-08-07T07:30:32.610Z,9.55
2022-08-07T07:33:04.850Z,11.30
2022-08-07T07:35:43.960Z,10.23
2022-08-07T07:38:13.262Z,10.28
2022-08-07T07:40:47.776Z,10.30
2022-08-07T07:43:27.678Z,9.20
2022-08-07T07:46:37.072Z,9.18
2022-08-07T07:48:35.749Z,10.55
2022-08-07T07:51:03.489Z,8.95
2022-08-07T07:53:51.229Z,8.80
2022-08-07T07:56:15.786Z,9.28
2022-08-07T07:58:48.999Z,9.40
2022-08-07T08:02:01.775Z,9.53
2022-08-07T08:04:09.456Z,9.68
2022-08-07T08:06:33.964Z,13.85
2022-08-07T08:09:08.207Z,10.10
2022-08-07T08:11:59.731Z,9.55
2022-08-07T08:14:14.619Z,11.15
2022-08-07T08:16:50.427Z,9.48
2022-08-07T08:20:19.384Z,9.65
2022-08-07T08:22:15.865Z,9.90
2022-08-07T08:25:24.546Z,10.05
2022-08-07T08:27:44.013Z,9.13
2022-08-07T08:30:19.656Z,8.85
2022-08-07T08:32:53.482Z,9.65
2022-08-07T08:35:28.788Z,8.20
2022-08-07T08:38:04.819Z,9.43
2022-08-07T08:40:39.697Z,9.18
2022-08-07T08:43:16.261Z,8.45
2022-08-07T08:45:58.903Z,10.43
2022-08-07T08:48:38.384Z,8.58
2022-08-07T08:51:14.328Z,9.15
2022-08-07T08:53:49.042Z,9.30
2022-08-07T08:56:24.715Z,8.55
2022-08-07T08:58:59.793Z,8.23
2022-08-07T09:01:40.199Z,9.08
2022-08-07T09:04:14.113Z,8.78
2022-08-07T09:06:51.337Z,8.03
2022-08-07T09:12:53.221Z,8.05
2022-08-07T09:16:21.619Z,8.25
2022-08-07T09:18:24.824Z,7.20
2022-08-07T09:21:13.798Z,7.95
2022-08-07T09:24:28.416Z,7.80
2022-08-07T09:26:28.158Z,7.33
2022-08-07T09:30:01.643Z,8.33
2022-08-07T09:31:48.479Z,8.63
2022-08-07T09:34:21.212Z,7.70
2022-08-07T09:36:57.402Z,7.97
2022-08-07T09:39:54.982Z,7.25
2022-08-07T09:42:25.289Z,7.17
2022-08-07T09:47:27.389Z,7.00
2022-08-07T09:48:01.161Z,7.45
2022-08-07T09:50:19.291Z,7.05
2022-08-07T09:52:53.887Z,6.45
2022-08-07T09:55:29.554Z,8.13
2022-08-07T09:58:26.211Z,7.50
2022-08-07T10:01:50.284Z,7.58
2022-08-07T10:04:06.090Z,7.12
2022-08-07T10:07:03.530Z,8.83
2022-08-07T10:10:01.062Z,8.55
2022-08-07T10:12:32.777Z,7.72
2022-08-07T10:15:54.676Z,6.22
2022-08-07T10:18:55.254Z,6.78
2022-08-07T10:24:18.398Z,5.87
2022-08-07T10:26:53.494Z,6.47
2022-08-07T10:29:43.223Z,6.28
2022-08-07T10:32:36.688Z,7.20
2022-08-07T10:35:01.141Z,6.70
2022-08-07T10:37:59.853Z,6.80
2022-08-07T10:40:15.475Z,6.33
2022-08-07T10:42:53.922Z,6.80
2022-08-07T10:45:44.718Z,6.25
2022-08-07T10:48:10.818Z,7.00
2022-08-07T10:50:50.121Z,6.03
2022-08-07T10:53:27.161Z,6.28
2022-08-07T10:56:06.190Z,6.15
2022-08-07T10:58:59.455Z,5.90
2022-08-07T11:01:35.490Z,6.25
2022-08-07T11:04:23.004Z,6.97
2022-08-07T11:06:47.626Z,6.55
2022-08-07T11:10:09.159Z,5.95
2022-08-07T11:11:59.709Z,5.83
2022-08-07T11:14:45.086Z,6.42
2022-08-07T11:17:43.246Z,5.85
2022-08-07T11:20:07.443Z,5.78
2022-08-07T11:22:46.298Z,6.45
2022-08-07T11:25:20.589Z,5.87
2022-08-07T11:28:02.855Z,5.72
2022-08-07T11:30:41.662Z,6.10
2022-08-07T11:33:14.190Z,7.00
2022-08-07T11:36:00.187Z,5.90
2022-08-07T11:38:28.198Z,6.53
2022-08-07T11:41:02.175Z,6.62
2022-08-07T11:43:54.512Z,6.60
2022-08-07T11:46:17.691Z,6.60
2022-08-07T11:49:51.626Z,7.22
2022-08-07T11:51:46.584Z,6.97
2022-08-07T11:54:46.472Z,5.85
2022-08-07T11:57:52.344Z,6.83
2022-08-07T12:00:11.186Z,6.97
2022-08-07T12:03:45.164Z,6.22
2022-08-07T12:05:51.829Z,6.47
2022-08-07T12:08:34.604Z,6.45
2022-08-07T12:11:20.298Z,5.92
2022-08-07T12:13:44.909Z,5.65
2022-08-07T12:16:30.051Z,6.53
2022-08-07T12:18:53.251Z,5.03
2022-08-07T12:22:36.336Z,5.25
2022-08-07T12:24:12.278Z,5.33
2022-08-07T12:26:46.601Z,5.10
2022-08-07T12:29:37.983Z,4.50
2022-08-07T12:32:04.209Z,4.03
2022-08-07T12:34:35.484Z,4.28
2022-08-07T12:37:16.546Z,3.98
2022-08-07T12:39:51.083Z,3.67
2022-08-07T12:42:27.235Z,4.35
2022-08-07T12:44:57.129Z,3.35
2022-08-07T12:47:32.474Z,2.95
2022-08-07T12:50:34.398Z,3.12
2022-08-07T12:52:48.138Z,3.58
2022-08-07T12:55:41.320Z,3.83
2022-08-07T12:58:02.175Z,3.25
2022-08-07T13:00:49.501Z,2.60
2022-08-07T13:03:22.928Z,2.98
2022-08-07T13:06:04.388Z,5.03
2022-08-07T13:08:46.952Z,3.55
2022-08-07T13:12:00.947Z,3.00
2022-08-07T13:14:15.173Z,2.90
2022-08-07T13:16:50.916Z,2.90
2022-08-07T13:19:46.287Z,2.87
2022-08-07T13:22:19.548Z,3.02
2022-08-07T13:24:43.886Z,2.70
2022-08-07T13:27:20.477Z,2.83
2022-08-07T13:29:55.716Z,2.67
2022-08-07T13:32:35.159Z,3.02
2022-08-07T13:35:09.243Z,2.77
2022-08-07T13:37:49.679Z,3.27
2022-08-07T13:40:35.061Z,3.10
2022-08-07T13:42:59.508Z,2.50
2022-08-07T13:46:21.219Z,2.62
2022-08-07T13:48:27.885Z,2.90
2022-08-07T13:51:02.023Z,3.00
2022-08-07T13:54:01.023Z,11.10
2022-08-07T13:56:09.917Z,2.87
2022-08-07T13:59:05.461Z,2.80
2022-08-07T14:01:51.175Z,3.05
2022-08-07T14:04:16.981Z,2.92
2022-08-07T14:06:51.531Z,3.00
2022-08-07T14:10:02.783Z,3.33
2022-08-07T14:12:04.782Z,3.70
2022-08-07T14:14:42.407Z,3.37
2022-08-07T14:18:12.371Z,3.17
2022-08-07T14:20:40.933Z,3.10
2022-08-07T14:22:34.709Z,3.00
2022-08-07T14:25:06.090Z,2.45
2022-08-07T14:28:21.023Z,3.35
2022-08-07T14:30:32.636Z,2.02
2022-08-07T14:32:57.230Z,2.90
2022-08-07T14:35:45.141Z,2.65
2022-08-07T14:38:07.658Z,2.65
2022-08-07T14:40:40.603Z,2.80
2022-08-07T14:43:57.492Z,3.15
2022-08-07T14:45:52.241Z,2.50
2022-08-07T14:51:16.225Z,2.60
2022-08-07T14:54:05.931Z,2.55
2022-08-07T14:56:30.125Z,2.80
2022-08-07T14:59:13.610Z,2.72
2022-08-07T15:01:42.918Z,2.33
2022-08-07T15:04:15.498Z,2.70
2022-08-07T15:06:50.806Z,2.35
2022-08-07T15:12:03.940Z,2.95
2022-08-07T15:14:55.754Z,2.85
2022-08-07T15:17:16.978Z,3.80
2022-08-07T15:20:32.509Z,3.95
2022-08-07T15:22:29.519Z,2.85
2022-08-07T15:28:32.277Z,2.33
2022-08-07T15:30:16.543Z,2.50
2022-08-07T15:32:50.747Z,3.05
2022-08-07T15:36:02.667Z,2.58
2022-08-07T15:38:18.352Z,2.00
2022-08-07T15:40:36.414Z,3.75
2022-08-07T15:43:53.781Z,2.72
2022-08-07T15:45:55.859Z,4.17
2022-08-07T15:48:29.783Z,3.40
2022-08-07T15:51:09.536Z,3.02
2022-08-07T15:53:53.193Z,2.52
2022-08-07T15:56:16.878Z,2.85
2022-08-07T15:58:55.046Z,3.00
2022-08-07T16:01:39.426Z,2.58
2022-08-07T16:04:05.270Z,2.25
2022-08-07T16:06:41.169Z,2.08
2022-08-07T16:09:22.713Z,2.92
2022-08-07T16:12:00.083Z,2.22
2022-08-07T16:14:48.817Z,2.25
2022-08-07T16:18:02.245Z,2.12
2022-08-07T16:20:43.653Z,2.65
2022-08-07T16:23:54.265Z,2.30
2022-08-07T16:26:31.118Z,2.20
2022-08-07T16:30:05.619Z,2.27
2022-08-07T16:31:57.799Z,2.22
2022-08-07T16:34:40.455Z,2.65
2022-08-07T16:38:04.364Z,2.60
2022-08-07T16:41:04.535Z,2.67
2022-08-07T16:44:06.251Z,2.42
2022-08-07T16:47:07.621Z,2.83
2022-08-07T16:50:28.563Z,2.52
2022-08-07T16:52:50.883Z,3.00
2022-08-07T16:54:55.208Z,2.65
2022-08-07T16:58:02.346Z,2.90
2022-08-07T17:00:15.215Z,3.03
2022-08-07T17:03:06.039Z,3.33
2022-08-07T17:06:19.301Z,4.10
2022-08-07T17:09:15.750Z,3.22
2022-08-07T17:11:20.208Z,2.87
2022-08-07T17:14:17.887Z,3.77
2022-08-07T17:16:36.693Z,2.85
2022-08-07T17:19:15.594Z,3.60
2022-08-07T17:21:51.657Z,3.30
2022-08-07T17:24:30.812Z,3.35
2022-08-07T17:27:05.740Z,3.00
2022-08-07T17:30:15.158Z,2.75
2022-08-07T17:32:31.353Z,2.65
2022-08-07T17:35:50.146Z,2.60
2022-08-07T17:38:06.897Z,2.65
2022-08-07T17:40:11.256Z,2.52
2022-08-07T17:42:59.729Z,4.30
2022-08-07T17:45:25.616Z,2.87
2022-08-07T17:48:04.623Z,3.10
2022-08-07T17:50:54.470Z,3.15
2022-08-07T17:54:00.447Z,3.92
2022-08-07T17:56:15.422Z,3.37
2022-08-07T17:58:49.500Z,3.42
2022-08-07T18:01:28.940Z,3.17
2022-08-07T18:04:16.261Z,3.00
2022-08-07T18:06:45.026Z,2.85
2022-08-07T18:10:04.914Z,3.37
2022-08-07T18:12:18.150Z,3.10
2022-08-07T18:14:38.209Z,2.70
2022-08-07T18:17:14.321Z,2.67
2022-08-07T18:21:08.513Z,2.40
2022-08-07T18:22:27.815Z,2.80
2022-08-07T18:25:19.130Z,2.33
2022-08-07T18:28:02.431Z,2.83
2022-08-07T18:30:38.689Z,3.25
2022-08-07T18:33:55.367Z,2.77
2022-08-07T18:36:32.862Z,2.92
2022-08-07T18:40:08.407Z,5.87
2022-08-07T18:41:52.953Z,3.37
2022-08-07T18:45:09.260Z,2.77
2022-08-07T18:47:22.575Z,2.45
2022-08-07T18:50:35.199Z,2.40
2022-08-07T18:52:54.964Z,2.67
2022-08-07T18:55:40.478Z,2.90
2022-08-07T18:58:20.701Z,3.42
2022-08-07T19:01:03.264Z,2.72
2022-08-07T19:03:41.464Z,2.65
2022-08-07T19:06:17.918Z,3.20
2022-08-07T19:09:09.641Z,2.77
2022-08-07T19:12:04.946Z,3.20
2022-08-07T19:14:42.593Z,3.08
2022-08-07T19:17:59.072Z,3.33
2022-08-07T19:19:59.306Z,3.02
2022-08-07T19:22:36.154Z,2.47
2022-08-07T19:26:24.956Z,3.40
2022-08-07T19:28:58.312Z,2.60
2022-08-07T19:31:00.299Z,2.90
2022-08-07T19:32:59.711Z,2.60
2022-08-07T19:35:35.509Z,3.00
2022-08-07T19:38:17.116Z,3.08
2022-08-07T19:40:50.048Z,2.80
2022-08-07T19:43:50.356Z,3.20
2022-08-07T19:46:07.860Z,2.77
2022-08-07T19:48:42.123Z,2.47
2022-08-07T19:51:19.588Z,2.55
2022-08-07T19:54:31.283Z,3.33
2022-08-07T19:58:01.398Z,3.27
2022-08-07T19:59:04.871Z,3.58
2022-08-07T20:01:56.274Z,2.85
2022-08-07T20:04:31.466Z,2.95
2022-08-07T20:06:46.896Z,3.00
2022-08-07T20:10:33.819Z,3.40
2022-08-07T20:12:23.408Z,3.58
2022-08-07T20:14:31.811Z,2.80
2022-08-07T20:17:05.414Z,3.70
2022-08-07T20:19:48.034Z,3.10
2022-08-07T20:22:17.389Z,3.52
2022-08-07T20:24:54.408Z,3.27
2022-08-07T20:27:47.943Z,3.10
2022-08-07T20:30:07.661Z,3.05
2022-08-07T20:32:41.314Z,3.75
2022-08-07T20:35:18.581Z,3.55
2022-08-07T20:37:57.738Z,3.75
2022-08-07T20:40:32.926Z,2.77
2022-08-07T20:43:02.091Z,3.20
2022-08-07T20:46:25.606Z,2.70
2022-08-07T20:48:08.788Z,3.22
2022-08-07T20:50:41.178Z,3.40
2022-08-07T20:53:15.658Z,3.50
2022-08-07T20:55:51.535Z,3.72
2022-08-07T20:58:28.261Z,3.62
2022-08-07T21:01:04.440Z,4.03
2022-08-07T21:03:39.774Z,3.55
2022-08-07T21:06:25.780Z,3.37
2022-08-07T21:08:50.932Z,3.83
2022-08-07T21:11:40.034Z,3.12
2022-08-07T21:14:31.748Z,4.22
2022-08-07T21:16:55.865Z,2.92
2022-08-07T21:19:14.733Z,4.67
2022-08-07T21:21:57.582Z,2.77
2022-08-07T21:24:27.338Z,3.37
2022-08-07T21:27:06.880Z,3.08
2022-08-07T21:29:40.481Z,3.02
2022-08-07T21:32:47.866Z,3.00
2022-08-07T21:34:55.466Z,3.25
2022-08-07T21:37:31.381Z,4.03
2022-08-07T21:40:09.986Z,4.72
2022-08-07T21:42:48.474Z,4.70
2022-08-07T21:46:08.386Z,4.08
2022-08-07T21:48:04.529Z,4.37
2022-08-07T21:50:41.614Z,4.85
2022-08-07T21:53:16.402Z,3.72
2022-08-07T21:55:54.997Z,4.05
2022-08-07T21:58:34.618Z,4.95
2022-08-07T22:01:13.698Z,4.55
2022-08-07T22:03:46.210Z,4.75
2022-08-07T22:06:30.442Z,4.20
2022-08-07T22:08:59.203Z,4.40
2022-08-07T22:12:04.846Z,4.20
2022-08-07T22:14:15.210Z,3.95
2022-08-07T22:16:47.652Z,4.15
2022-08-07T22:19:23.722Z,5.55
2022-08-07T22:22:02.222Z,4.95
2022-08-07T22:24:35.127Z,4.97
2022-08-07T22:27:10.251Z,4.12
2022-08-07T22:29:48.487Z,4.20
2022-08-07T22:32:24.585Z,3.95
2022-08-07T22:34:57.985Z,5.28
2022-08-07T22:38:04.122Z,5.70
2022-08-07T22:40:13.178Z,5.90
2022-08-07T22:42:49.428Z,4.50
2022-08-07T22:46:21.181Z,5.10
2022-08-07T22:48:31.325Z,7.08
2022-08-07T22:50:57.853Z,5.15
2022-08-07T22:54:08.267Z,6.28
2022-08-07T22:56:29.868Z,4.55
2022-08-07T22:59:24.789Z,5.58
2022-08-07T23:02:02.090Z,5.80
2022-08-07T23:07:52.723Z,5.35
2022-08-07T23:10:41.176Z,4.45
2022-08-07T23:13:29.267Z,6.22
2022-08-07T23:16:05.547Z,5.87
2022-08-07T23:18:42.478Z,5.85
2022-08-07T23:21:21.317Z,5.72
2022-08-07T23:24:19.305Z,5.15
2022-08-07T23:27:01.624Z,5.70
2022-08-07T23:30:39.125Z,5.33
2022-08-07T23:34:23.841Z,4.85
2022-08-07T23:35:16.736Z,5.20
2022-08-07T23:38:03.969Z,4.65
2022-08-07T23:40:43.018Z,4.20
2022-08-07T23:43:35.340Z,4.37
2022-08-07T23:46:10.455Z,4.85
2022-08-07T23:48:50.259Z,4.55
2022-08-07T23:53:00.145Z,5.03
2022-08-07T23:54:02.154Z,4.92
2022-08-07T23:56:37.949Z,5.72
